Vine Grove, KY (40175)

6:22 AM EST on December 29, 2014 (GMT -0500)
Farmington Estates | Change Station
CLOSE
Current Station
Personal Weather Station
Location: Vine Grove, KY
Elevation: 669 ft
Nearby Weather Stations

Elev 669 ft 37.86 °N, 86.03 °W | Updated 1 minute ago

Overcast
Overcast
32.2 °F
Feels Like 27 °F
N
5.8
Wind Variable Wind from North

Today
High -- | Low -- °F
--% Chance of Precip.
Yesterday
High -- | Low -- °F
Precip. -- in
7:59 AM 5:33 PM
First Quarter, 58% visible
Pressure 30.21 in
Visibility 10.0 miles
Clouds Overcast 2000 ft
Windchill 27 °F
Dew Point 30 °F
Humidity 90%
Rainfall 0.00 in
Snow Depth Not available.
UV 0 out of 12
Pollen .10 out of 12
Air Quality Not available.
Flu Activity Not available.
METAR KFTK 291058Z AUTO 36005KT 10SM OVC020 00/M01 A3018 RMK AO2 SLP229 T00011014

More Conditions Fewer Conditions

Pressure 30.21 in
Visibility 10.0 miles
Clouds Overcast 2000 ft
Windchill 27 °F
Dew Point 30 °F
Humidity 90%
Rainfall 0.00 in
Snow Depth Not available.
UV 0 out of 12
Pollen .10 out of 12
Air Quality Not available.
Flu Activity Not available.
METAR KFTK 291058Z AUTO 36005KT 10SM OVC020 00/M01 A3018 RMK AO2 SLP229 T00011014

More Conditions Fewer Conditions

10-Day Weather Forecast

Almanac

Astronomy

Dec. 29, 2014 Rise Set
Actual Time
Civil Twilight
Nautical Twilight
Astronomical Twilight
Moon
Length of Visible Light
Length of Day
Tomorrow will be .
, % of the Moon is Illuminated

Today's Extremes

State Highs State Lows

Community

WunderPhotos

Upload Photos

1,781,567 photos uploaded!

WunderBlogs® & News

Nearby

Air Quality

  Air Quality AQ Index Pollutant
Not available.

Snow Depth

Station Depth Elevation

Earthquake Activity

City Distance Mag. Time & Date
Minimum magnitude displayed is 2.5.

Coastal Water Temperatures

Place Temperature

Nearby Weather Stations